AirNav   Air Wisconsin pilot careers
 
 264 users online  

GE05 Gibson Field Airport
LaFayette, Georgia, USA

GOING TO LAFAYETTE?


FAA INFORMATION EFFECTIVE 31 JANUARY 2019

Location

FAA Identifier: GE05
Lat/Long: 34-36-56.0000N / 085-20-35.0000W
34-36.933333N / 085-20.583333W
34.6155556 / -85.3430556
(estimated)
Elevation: 750 ft. / 229 m (estimated)
From city: 5 miles SSW of LAFAYETTE, GA
Time zone: UTC -5 (UTC -4 during Daylight Saving Time)
Zip code: 30753

Airport Operations

Airport use: Private use. Permission required prior to landing
Activation date: 08/2004
Control tower: no
ARTCC: ATLANTA CENTER
FSS: ANNISTON FLIGHT SERVICE STATION
Attendance: UNATNDD
Wind indicator: yes
Segmented circle: no

Airport Communications

WX AWOS-3 at 9A5 (5 nm NE): 119.775 (706-639-1976)
WX ASOS at RMG (18 nm SE): 119.925 (706-235-3467)

Nearby radio navigation aids

VOR radial/distance  VOR name  Freq  Var
GQOr203/22.8CHOO CHOO VORTAC115.8001E
RMGr337/29.3ROME VORTAC115.4001E

 
NDB name  Hdg/Dist  Freq  Var  ID
FORT PAYNE075/17.342604WFTP ..-. - .--.
CALHOUN307/24.332305WOUK --- ..- -.-
DAISY197/34.334102WCQN -.-. --.- -.
CARTERSVILLE319/35.130804WEVZ . ...- --..

Airport Services

Runway Information

Runway 2/20

Dimensions: 2400 x 50 ft. / 732 x 15 m
Surface: turf
RUNWAY 2  RUNWAY 20
Traffic pattern: leftleft

Airport Ownership and Management from official FAA records

Ownership: Privately-owned
Owner: BLUE MT AIRPARK PROPERTY OWNERS
4749 E. BROOMTOWN RD
TRION, GA 30753
Phone (706) 638-2569
Manager: BLUE MT AIRPARK PROPERTY OWNERS
4749 E. BROOMTOWN RD
TRION, GA 30753
Phone (706) 638-2569

Airport Operational Statistics

Aircraft based on the field: 6
Single engine airplanes: 5
Helicopters: 1
    

Additional Remarks

VISITORS WELCOME BUT FILE LANDING AGREEMENT ON LINE - WWW.BLUEMOUNTAINAIRPARK.COM
FOR CD CTC CHATTANOOGA APCH AT 423-855-6478. IF UNA, CTC FSS.

Instrument Procedures

There are no published instrument procedures at GE05.

Some nearby airports with instrument procedures:

9A5 - Barwick Lafayette Airport (5 nm NE)
KRMG - Richard B. Russell Regional Airport - J.H. Towers Field (18 nm SE)
4A9 - Isbell Field Airport (21 nm SW)
KCZL - Tom B David Field Airport (22 nm SE)
KDNN - Dalton Municipal Airport (24 nm E)
 
Loc | Ops | Rwys | IFR | FBO | Links
Com | Nav | Svcs | Stats | Notes
Area around GE05 (Gibson Field Airport)
 
Road maps at: MapQuest Bing Google
 
Aerial photo
WARNING: Photo may not be current or correct
Aerial photo of GE05 (Gibson Field Airport)
Photo taken 04-Jul-2007
from a C3-B Stearman

Do you have a better or more recent aerial photo of Gibson Field Airport that you would like to share? If so, please send us your photo.

 
Sectional chart

 
Airport distance calculator
Flying to Gibson Field Airport? Find the distance to fly.

From to GE05

Sunrise and sunset
Times for 17-Feb-2019
 Local
(UTC-5)
 Zulu
(UTC)
Morning civil twilight07:0012:00
Sunrise07:2612:26
Sunset18:2523:25
Evening civil twilight18:5123:51

Current date and time
Zulu (UTC)  17-Feb-2019 08:57:06
Local (UTC-5)  17-Feb-2019 03:57:06
 
METAR
K9A5 
5nm NE 
170835Z AUTO 00000KT 10SM SCT018 SCT080 BKN095 07/06 A2986 RMK AO2 T00680058
KDNN 
13nm NE 
170835Z AUTO 00000KT 10SM RA SCT024 BKN060 OVC090 07/07 A2990 RMK AO2
KRMG 
18nm SE 
170853Z AUTO 00000KT 10SM SCT026 BKN075 OVC100 08/07 A2985 RMK AO2 RAE21 SLP104 P0002 60003 T00830067 58005
TAF
KCHA 
26nm N 
170530Z 1706/1806 VRB03KT 5SM -DZ OVC012 FM171000 10003KT 5SM -SHRA BR OVC007
NOTAMs
Click for the latest NOTAMs
NOTAMs are issued by the DoD/FAA and will open in a separate window not controlled by AirNav.

 

 
 

Would you like to see your business listed on this page?

 If your business provides an interesting product or service to pilots, flight crews, aircraft, or users of the Gibson Field Airport, you should consider listing it here.  To start the listing process, click on the button below
 
Add a business
 

Other Pages about Gibson Field Airport

bluemountainairpark.googlepages.com
 
Update a link
 
Copyright © AirNav, LLC. All rights reserved. Privacy Policy  Contact